Time;durP1;ratioP1;P1;durP2;ratioP2;P2;SDS_P1;SDS_P2;PMS_P1;PMS_P2;Temp;Humidity;BMP_temperature;BMP_pressure;BME280_temperature;BME280_humidity;BME280_pressure;Samples;Min_cycle;Max_cycle;Signal;HPM_P1;HPM_P2
2022/06/13 00:02:06;;;;;;;21.88;6.43;;;;;;;12.06;100.00;101901.38;5046397;28;20033;-61
2022/06/13 00:04:34;;;;;;;21.33;6.50;;;;;;;12.05;100.00;101904.88;5044636;28;20087;-61
2022/06/13 00:07:01;;;;;;;20.17;6.45;;;;;;;11.99;100.00;101896.84;5047307;28;20025;-61
2022/06/13 00:09:27;;;;;;;20.38;6.47;;;;;;;11.92;100.00;101889.66;5043655;28;20358;-61
2022/06/13 00:11:52;;;;;;;22.15;6.65;;;;;;;11.95;100.00;101902.97;5047231;28;20029;-62
2022/06/13 00:14:18;;;;;;;22.50;7.80;;;;;;;12.00;100.00;101898.66;5044595;28;20025;-61
2022/06/13 00:16:43;;;;;;;21.17;6.80;;;;;;;11.95;100.00;101898.53;5045695;28;20021;-64
2022/06/13 00:19:08;;;;;;;19.45;6.47;;;;;;;11.92;100.00;101895.81;5046037;28;20033;-65
2022/06/13 00:21:36;;;;;;;20.15;6.70;;;;;;;11.87;100.00;101889.56;5044228;28;20033;-64
2022/06/13 00:24:05;;;;;;;22.00;6.65;;;;;;;11.80;100.00;101883.28;5046706;28;20468;-63
2022/06/13 00:26:33;;;;;;;20.42;6.60;;;;;;;11.72;100.00;101886.66;5043860;28;20483;-65
2022/06/13 00:28:59;;;;;;;20.85;6.65;;;;;;;11.68;100.00;101888.41;5047283;28;20028;-66
2022/06/13 00:31:25;;;;;;;21.20;6.70;;;;;;;11.63;100.00;101890.06;5039457;28;20022;-64
2022/06/13 00:33:51;;;;;;;21.38;6.90;;;;;;;11.63;100.00;101884.75;5046482;28;20021;-63
2022/06/13 00:36:17;;;;;;;20.52;6.82;;;;;;;11.71;100.00;101875.19;5044579;28;20052;-64
2022/06/13 00:38:43;;;;;;;20.65;6.80;;;;;;;11.84;100.00;101882.47;5045033;28;20116;-64
2022/06/13 00:41:10;;;;;;;20.05;6.65;;;;;;;11.88;100.00;101880.75;5045583;28;20100;-64
2022/06/13 00:43:38;;;;;;;23.17;7.15;;;;;;;11.90;100.00;101878.09;5044034;28;20086;-65
2022/06/13 00:46:22;;;;;;;21.00;6.70;;;;;;;11.97;100.00;101869.41;5046215;28;20380;-65
2022/06/13 00:48:51;;;;;;;21.95;6.90;;;;;;;12.03;100.00;101874.84;5045702;28;20089;-64
2022/06/13 00:51:17;;;;;;;20.88;6.53;;;;;;;12.08;100.00;101870.47;5044262;28;20025;-63
2022/06/13 00:53:43;;;;;;;21.20;6.68;;;;;;;12.19;100.00;101865.34;5045127;28;20124;-65
2022/06/13 00:56:14;;;;;;;21.00;7.13;;;;;;;12.24;100.00;101874.22;5045170;28;20112;-64
2022/06/13 00:58:46;;;;;;;22.35;7.32;;;;;;;12.25;100.00;101865.41;5044601;28;20022;-64
2022/06/13 01:01:12;;;;;;;21.23;6.95;;;;;;;12.21;100.00;101872.44;5044792;28;20072;-63
2022/06/13 01:03:38;;;;;;;20.08;6.85;;;;;;;12.29;100.00;101871.63;5042977;28;20088;-61
2022/06/13 01:06:05;;;;;;;20.38;7.20;;;;;;;12.31;100.00;101875.22;5045877;28;20021;-60
2022/06/13 01:08:34;;;;;;;21.58;7.10;;;;;;;12.41;100.00;101881.50;5042924;28;20030;-61
2022/06/13 01:11:16;;;;;;;20.10;7.15;;;;;;;12.42;100.00;101872.69;5046247;28;20131;-61
2022/06/13 01:14:09;;;;;;;21.17;7.28;;;;;;;12.59;100.00;101864.97;5044243;28;20022;-61
2022/06/13 01:17:02;;;;;;;21.05;6.93;;;;;;;12.66;100.00;101875.66;5040362;28;20033;-62
2022/06/13 01:19:49;;;;;;;21.58;7.35;;;;;;;12.59;100.00;101873.81;5038988;28;20071;-62
2022/06/13 01:22:39;;;;;;;22.40;7.57;;;;;;;12.61;100.00;101869.44;5043126;28;20060;-61
2022/06/13 01:25:25;;;;;;;21.20;7.10;;;;;;;12.46;100.00;101861.28;5040299;28;20037;-62
2022/06/13 01:28:11;;;;;;;22.30;7.90;;;;;;;12.46;100.00;101874.53;5043157;28;20040;-62
2022/06/13 01:30:58;;;;;;;23.15;7.88;;;;;;;12.56;100.00;101872.00;5041103;28;20029;-61
2022/06/13 01:33:35;;;;;;;21.85;7.50;;;;;;;12.52;100.00;101864.91;5042647;28;20026;-62
2022/06/13 01:36:13;;;;;;;22.27;7.82;;;;;;;12.44;100.00;101863.91;5039234;28;20025;-61
2022/06/13 01:39:00;;;;;;;20.30;7.32;;;;;;;12.49;100.00;101859.53;5044358;28;20041;-63
2022/06/13 01:41:53;;;;;;;22.60;8.10;;;;;;;12.63;100.00;101862.38;5038130;28;20559;-61
2022/06/13 01:44:37;;;;;;;;;;;;;;;12.72;100.00;101858.94;5044593;28;20121;-61
2022/06/13 01:47:07;;;;;;;23.30;7.88;;;;;;;12.72;100.00;101848.31;5039402;28;19913;-61
2022/06/13 01:50:06;;;;;;;22.88;8.20;;;;;;;12.80;100.00;101846.66;5045144;28;20531;-61
2022/06/13 01:52:44;;;;;;;22.00;8.00;;;;;;;12.76;100.00;101847.47;5042407;28;20033;-61
2022/06/13 01:55:26;;;;;;;24.05;8.52;;;;;;;12.65;100.00;101849.13;5044116;28;20029;-62
2022/06/13 01:58:18;;;;;;;23.73;8.93;;;;;;;12.59;100.00;101857.00;5044855;28;20029;-61
2022/06/13 02:00:50;;;;;;;25.05;8.68;;;;;;;12.53;100.00;101856.03;5038800;28;20037;-62
2022/06/13 02:03:26;;;;;;;22.25;8.60;;;;;;;12.59;100.00;101862.31;5043046;28;20025;-61
2022/06/13 02:06:29;;;;;;;23.15;8.75;;;;;;;12.65;100.00;101862.38;5044961;28;20079;-61
2022/06/13 02:09:04;;;;;;;22.65;9.07;;;;;;;12.76;100.00;101868.72;5031192;28;20493;-61
2022/06/13 02:11:50;;;;;;;24.40;9.20;;;;;;;12.83;100.00;101861.69;5011041;28;20044;-62
2022/06/13 02:14:34;;;;;;;21.95;8.30;;;;;;;12.89;100.00;101864.44;5031149;28;20544;-61
2022/06/13 02:17:12;;;;;;;25.02;9.00;;;;;;;12.95;100.00;101866.28;5023570;28;20033;-61
2022/06/13 02:19:45;;;;;;;22.80;8.77;;;;;;;12.96;100.00;101866.28;5030834;28;20053;-62
2022/06/13 02:22:16;;;;;;;;;;;;;;;13.02;100.00;101870.78;5031697;28;20033;-62
2022/06/13 02:24:50;;;;;;;23.67;8.98;;;;;;;12.87;100.00;101872.38;5031085;28;19924;-61
2022/06/13 02:27:18;;;;;;;23.40;9.10;;;;;;;12.78;100.00;101877.56;5030982;28;20032;-61
2022/06/13 02:29:56;;;;;;;23.20;9.05;;;;;;;12.69;100.00;101865.09;5030810;28;20072;-62
2022/06/13 02:32:29;;;;;;;24.80;9.00;;;;;;;12.61;100.00;101857.91;5030876;28;20046;-61
2022/06/13 02:35:07;;;;;;;24.95;9.52;;;;;;;12.54;100.00;101863.16;5031064;28;20544;-67
2022/06/13 02:37:42;;;;;;;26.88;9.70;;;;;;;12.53;100.00;101855.16;5027546;28;20124;-64
2022/06/13 02:40:13;;;;;;;23.58;9.15;;;;;;;12.55;100.00;101853.41;5030771;28;20064;-64
2022/06/13 02:42:49;;;;;;;27.35;9.73;;;;;;;12.55;100.00;101856.97;5030662;28;20048;-66
2022/06/13 02:45:31;;;;;;;25.40;9.48;;;;;;;12.51;100.00;101844.53;5037943;28;20064;-64
2022/06/13 02:48:16;;;;;;;23.45;9.43;;;;;;;12.47;100.00;101850.69;5041143;28;20029;-62
2022/06/13 02:50:56;;;;;;;25.25;10.23;;;;;;;12.48;100.00;101852.47;5040424;28;20124;-64
2022/06/13 02:53:26;;;;;;;23.60;9.70;;;;;;;12.48;100.00;101849.81;5041936;28;20033;-64
2022/06/13 02:56:16;;;;;;;25.23;10.18;;;;;;;12.50;100.00;101855.13;5044263;28;20033;-66
2022/06/13 02:59:01;;;;;;;25.13;10.30;;;;;;;12.46;100.00;101854.19;5030579;28;20512;-64
2022/06/13 03:01:33;;;;;;;23.23;9.82;;;;;;;12.43;100.00;101848.84;5030400;28;20481;-64
2022/06/13 03:04:08;;;;;;;26.13;10.80;;;;;;;12.35;100.00;101847.88;5030550;28;20044;-65
2022/06/13 03:06:45;;;;;;;26.17;9.98;;;;;;;12.32;100.00;101845.16;5030372;28;20057;-64
2022/06/13 03:09:17;;;;;;;25.85;10.40;;;;;;;12.33;100.00;101846.97;5030291;28;20040;-66
2022/06/13 03:12:04;;;;;;;26.83;10.85;;;;;;;12.33;100.00;101849.59;5030476;28;20049;-66
2022/06/13 03:14:38;;;;;;;24.88;10.45;;;;;;;12.38;100.00;101853.22;5030247;28;20492;-64
2022/06/13 03:17:14;;;;;;;26.00;10.57;;;;;;;12.32;100.00;101850.47;5030503;28;20547;-64
2022/06/13 03:19:54;;;;;;;26.33;10.15;;;;;;;12.30;100.00;101842.50;5014812;28;20026;-65
2022/06/13 03:22:34;;;;;;;25.88;10.73;;;;;;;12.23;100.00;101855.66;5030195;28;20038;-61
2022/06/13 03:25:37;;;;;;;25.23;10.57;;;;;;;12.20;100.00;101848.53;5030200;28;20116;-61
2022/06/13 03:28:22;;;;;;;27.50;11.25;;;;;;;12.19;100.00;101860.91;5033180;28;20044;-61
2022/06/13 03:30:52;;;;;;;26.10;11.20;;;;;;;12.16;100.00;101862.66;5034371;28;20060;-61
2022/06/13 03:33:40;;;;;;;27.35;11.23;;;;;;;12.13;100.00;101851.97;5034248;28;20495;-61
2022/06/13 03:36:24;;;;;;;27.95;11.23;;;;;;;12.06;100.00;101853.69;5033500;28;20046;-61
2022/06/13 03:39:01;;;;;;;26.35;11.15;;;;;;;11.98;100.00;101853.53;5045170;28;20041;-61
2022/06/13 03:41:32;;;;;;;26.95;11.40;;;;;;;11.90;100.00;101863.13;5047958;28;20021;-61
2022/06/13 03:44:05;;;;;;;27.98;11.13;;;;;;;11.83;100.00;101864.78;5044346;28;20495;-62
2022/06/13 03:46:44;;;;;;;26.15;11.20;;;;;;;11.82;100.00;101868.31;5041085;28;20021;-63
2022/06/13 03:49:35;;;;;;;27.60;11.93;;;;;;;11.80;100.00;101867.38;5043151;28;20029;-61
2022/06/13 03:52:05;;;;;;;27.17;11.68;;;;;;;11.74;100.00;101864.66;5040244;28;20044;-62
2022/06/13 03:54:50;;;;;;;27.50;11.50;;;;;;;11.69;100.00;101877.81;5041160;28;20108;-60
2022/06/13 03:57:26;;;;;;;26.30;11.77;;;;;;;11.68;100.00;101883.97;5044840;28;20510;-61
2022/06/13 04:00:00;;;;;;;28.20;12.13;;;;;;;11.68;100.00;101883.09;5044788;28;20080;-61
2022/06/13 04:02:30;;;;;;;30.10;12.52;;;;;;;11.67;100.00;101876.00;5047198;28;20123;-61
2022/06/13 04:04:56;;;;;;;27.20;11.73;;;;;;;11.70;100.00;101881.34;5044402;28;20025;-61
2022/06/13 04:07:24;;;;;;;31.67;12.48;;;;;;;11.66;100.00;101884.81;5047050;28;20059;-60
2022/06/13 04:09:59;;;;;;;28.27;12.25;;;;;;;11.62;100.00;101889.19;5045051;28;20033;-61
2022/06/13 04:12:49;;;;;;;26.70;12.05;;;;;;;11.59;100.00;101882.91;5046977;28;20017;-62
2022/06/13 04:15:28;;;;;;;26.17;11.77;;;;;;;11.56;100.00;101883.75;5044094;28;20029;-60
2022/06/13 04:17:57;;;;;;;30.05;12.77;;;;;;;11.54;100.00;101884.63;5044148;28;20109;-61
2022/06/13 04:20:34;;;;;;;27.95;12.57;;;;;;;11.57;100.00;101882.91;5046785;28;20079;-61
2022/06/13 04:23:11;;;;;;;27.02;12.25;;;;;;;11.60;100.00;101887.38;5043897;28;20061;-61
2022/06/13 04:25:43;;;;;;;29.25;12.63;;;;;;;11.58;100.00;101886.47;5041212;28;20107;-62
2022/06/13 04:28:20;;;;;;;26.83;12.77;;;;;;;11.59;100.00;101893.50;5046112;28;20108;-61
2022/06/13 04:30:48;;;;;;;28.75;12.73;;;;;;;11.58;100.00;101895.28;5045306;28;20032;-61
2022/06/13 04:33:22;;;;;;;30.60;13.55;;;;;;;11.60;100.00;101900.59;5045506;28;20075;-66
2022/06/13 04:35:49;;;;;;;29.55;13.00;;;;;;;11.64;100.00;101899.78;5045706;28;20534;-63
2022/06/13 04:38:17;;;;;;;30.52;13.68;;;;;;;11.73;100.00;101901.69;5044863;28;20047;-64
2022/06/13 04:40:49;;;;;;;30.00;13.48;;;;;;;11.85;100.00;101908.09;5044861;28;20025;-63
2022/06/13 04:43:16;;;;;;;28.58;13.30;;;;;;;11.98;100.00;101909.19;5045539;28;20048;-65
2022/06/13 04:46:05;;;;;;;31.45;13.60;;;;;;;12.09;100.00;101896.13;5044844;28;20503;-66
2022/06/13 04:48:32;;;;;;;29.38;13.43;;;;;;;12.19;100.00;101900.69;5039895;28;20032;-63
2022/06/13 04:51:01;;;;;;;30.38;13.80;;;;;;;12.26;100.00;101906.97;5039318;28;20029;-64
2022/06/13 04:53:36;;;;;;;29.50;13.93;;;;;;;12.31;100.00;101904.38;5046585;28;20032;-66
2022/06/13 04:56:02;;;;;;;28.52;12.75;;;;;;;12.40;100.00;101911.56;5039822;28;20021;-64
2022/06/13 04:58:33;;;;;;;28.27;13.32;;;;;;;12.43;100.00;101912.50;5039007;28;20037;-64
2022/06/13 05:01:27;;;;;;;29.35;14.13;;;;;;;12.47;100.00;101916.97;5039047;28;20032;-64
2022/06/13 05:03:55;;;;;;;28.50;13.40;;;;;;;12.49;100.00;101915.22;5045153;28;20035;-64
2022/06/13 05:06:31;;;;;;;33.13;14.23;;;;;;;12.56;100.00;101919.75;5043611;28;20457;-64
2022/06/13 05:09:01;;;;;;;31.20;13.75;;;;;;;12.65;100.00;101918.97;5046363;28;20072;-64
2022/06/13 05:11:38;;;;;;;28.45;13.43;;;;;;;12.82;100.00;101923.63;5042791;28;20048;-64
2022/06/13 05:14:13;;;;;;;27.80;13.52;;;;;;;12.93;100.00;101929.03;5039864;28;20463;-66
2022/06/13 05:16:57;;;;;;;30.95;14.80;;;;;;;13.00;100.00;101922.94;5045226;28;20031;-61
2022/06/13 05:19:25;;;;;;;28.77;13.60;;;;;;;13.14;100.00;101929.28;5045451;28;20037;-62
2022/06/13 05:22:25;;;;;;;27.88;13.52;;;;;;;13.18;100.00;101931.09;5043607;28;20028;-61
2022/06/13 05:25:03;;;;;;;29.05;13.70;;;;;;;13.25;100.00;101927.66;5044174;28;20103;-61
2022/06/13 05:27:29;;;;;;;27.58;13.10;;;;;;;13.30;100.00;101932.13;5042538;28;20029;-61
2022/06/13 05:29:54;;;;;;;29.80;12.80;;;;;;;13.36;100.00;101934.88;5045658;28;20021;-61
2022/06/13 05:32:21;;;;;;;26.73;12.30;;;;;;;13.40;100.00;101932.25;5043921;28;20029;-61
2022/06/13 05:34:48;;;;;;;28.77;12.20;;;;;;;13.50;100.00;101942.94;5044401;28;20025;-61
2022/06/13 05:37:16;;;;;;;29.55;12.57;;;;;;;13.60;100.00;101945.72;5044378;28;20060;-61
2022/06/13 05:39:41;;;;;;;29.02;12.57;;;;;;;13.71;100.00;101945.81;5043431;28;20029;-62
2022/06/13 05:42:08;;;;;;;29.35;12.75;;;;;;;13.77;100.00;101955.59;5045350;28;20036;-63
2022/06/13 05:44:33;;;;;;;30.02;12.45;;;;;;;13.85;100.00;101951.25;5042690;28;20045;-61
2022/06/13 05:46:59;;;;;;;29.65;12.02;;;;;;;14.03;100.00;101954.94;5045515;28;20025;-61
2022/06/13 05:49:24;;;;;;;28.13;12.98;;;;;;;14.16;100.00;101958.59;5042398;28;20054;-61
2022/06/13 05:51:50;;;;;;;28.52;11.10;;;;;;;14.28;100.00;101962.22;5044745;28;20483;-62
2022/06/13 05:54:15;;;;;;;26.45;10.35;;;;;;;14.41;100.00;101962.28;5035703;28;20456;-63
2022/06/13 05:56:41;;;;;;;23.98;9.63;;;;;;;14.59;100.00;101961.50;5040507;28;20036;-63
2022/06/13 05:59:06;;;;;;;26.02;9.18;;;;;;;14.58;100.00;101963.28;5040988;28;20013;-69
2022/06/13 06:01:34;;;;;;;24.05;8.30;;;;;;;14.67;100.00;101961.59;5039196;28;20480;-74
2022/06/13 06:04:00;;;;;;;26.65;9.20;;;;;;;14.78;100.00;101968.75;5042577;28;20353;-72
2022/06/13 06:06:28;;;;;;;25.55;8.10;;;;;;;14.80;100.00;101971.41;5043758;28;20082;-72
2022/06/13 06:08:54;;;;;;;22.85;8.23;;;;;;;14.86;100.00;101979.41;5042854;28;20071;-70
2022/06/13 06:11:21;;;;;;;23.98;8.20;;;;;;;14.87;100.00;101988.28;5043964;28;20029;-70
2022/06/13 06:13:47;;;;;;;24.73;8.15;;;;;;;14.93;100.00;101986.53;5037266;28;20029;-71
2022/06/13 06:16:16;;;;;;;24.95;8.10;;;;;;;15.02;100.00;101996.34;5045473;28;20025;-69
2022/06/13 06:18:41;;;;;;;25.27;8.40;;;;;;;15.09;100.00;101998.16;5040814;28;20029;-69
2022/06/13 06:21:07;;;;;;;24.02;8.13;;;;;;;15.19;100.00;101996.41;5041565;28;20029;-71
2022/06/13 06:23:32;;;;;;;27.05;9.13;;;;;;;15.36;100.00;101995.56;5039647;28;20032;-72
2022/06/13 06:25:58;;;;;;;25.85;8.77;;;;;;;15.52;100.00;102000.03;5041699;28;20033;-69
2022/06/13 06:28:26;;;;;;;22.60;7.32;;;;;;;15.57;100.00;102008.06;5043260;28;20047;-69
2022/06/13 06:30:53;;;;;;;23.00;7.07;;;;;;;15.71;100.00;102002.75;5040838;28;20056;-69
2022/06/13 06:33:20;;;;;;;24.50;6.82;;;;;;;15.87;100.00;101996.56;5044594;28;20507;-68
2022/06/13 06:35:46;;;;;;;21.88;6.60;;;;;;;15.90;100.00;102001.03;5040537;28;20547;-71
2022/06/13 06:38:11;;;;;;;23.35;6.10;;;;;;;15.86;100.00;102006.34;5044214;28;20044;-71
2022/06/13 06:40:38;;;;;;;21.05;5.47;;;;;;;15.63;100.00;102014.28;5056352;28;20052;-68
2022/06/13 06:43:03;;;;;;;20.00;5.60;;;;;;;15.52;100.00;102013.38;5037563;28;20037;-63
2022/06/13 06:45:29;;;;;;;22.05;5.38;;;;;;;15.39;100.00;102023.13;5043495;28;20095;-63
2022/06/13 06:47:55;;;;;;;21.48;5.90;;;;;;;15.34;100.00;102022.22;5044063;28;20028;-71
2022/06/13 06:50:25;;;;;;;22.00;5.18;;;;;;;15.47;100.00;102024.03;5036946;28;20025;-70
2022/06/13 06:52:50;;;;;;;20.73;4.88;;;;;;;15.57;100.00;102026.72;5039846;28;20112;-71
2022/06/13 07:00:49;;;;;;;17.35;4.10;;;;;;;15.64;100.00;102026.75;5034653;28;20040;-69
2022/06/13 07:03:15;;;;;;;19.70;4.07;;;;;;;15.56;100.00;102027.59;5038384;28;20130;-71
2022/06/13 07:05:41;;;;;;;20.33;4.30;;;;;;;15.44;100.00;102033.78;5040525;28;20116;-73
2022/06/13 07:08:06;;;;;;;18.52;3.95;;;;;;;15.25;100.00;102028.41;5042106;28;20580;-72
2022/06/13 07:10:33;;;;;;;15.85;3.75;;;;;;;15.20;100.00;102035.47;5042962;28;20063;-73
2022/06/13 07:12:58;;;;;;;19.02;4.00;;;;;;;15.28;100.00;102031.06;5042927;28;20025;-68
2022/06/13 07:15:24;;;;;;;19.08;4.10;;;;;;;15.39;100.00;102024.88;5040237;28;20425;-71
2022/06/13 07:17:49;;;;;;;17.90;3.90;;;;;;;15.47;100.00;102031.13;5038551;28;20468;-74
2022/06/13 07:20:15;;;;;;;17.08;4.15;;;;;;;15.54;100.00;102032.94;5042417;28;20586;-71
2022/06/13 07:22:52;;;;;;;18.20;3.85;;;;;;;15.62;100.00;102038.28;5042013;28;20108;-74
2022/06/13 07:25:25;;;;;;;19.25;4.15;;;;;;;15.69;100.00;102040.94;5043688;28;20528;-69
2022/06/13 07:27:50;;;;;;;19.25;3.90;;;;;;;15.85;100.00;102035.69;5038944;28;20030;-68
2022/06/13 07:30:18;;;;;;;18.98;3.90;;;;;;;16.19;100.00;102035.69;5040030;28;20028;-67
2022/06/13 07:32:44;;;;;;;17.67;4.03;;;;;;;16.39;100.00;102039.22;5040739;28;20128;-70
2022/06/13 07:35:12;;;;;;;17.63;3.95;;;;;;;16.44;99.64;102039.25;5041225;28;20441;-62
2022/06/13 07:40:22;;;;;;;20.13;3.90;;;;;;;16.45;100.00;102042.81;5040887;28;20588;-62
2022/06/13 07:42:50;;;;;;;17.45;3.60;;;;;;;16.39;98.21;102041.91;5042196;28;20033;-63
2022/06/13 07:45:22;;;;;;;20.25;3.70;;;;;;;16.33;97.62;102038.38;5040145;28;20037;-63
2022/06/13 07:47:49;;;;;;;18.77;4.03;;;;;;;16.45;97.74;102040.13;5043867;28;20039;-62
2022/06/13 07:50:17;;;;;;;15.57;3.60;;;;;;;16.49;95.90;102041.91;5042143;28;20033;-61
2022/06/13 07:52:43;;;;;;;15.88;3.50;;;;;;;16.62;97.27;102042.78;5039853;28;20033;-61
2022/06/13 07:55:09;;;;;;;17.02;3.97;;;;;;;16.77;97.42;102049.88;5040869;28;20024;-62
2022/06/13 07:57:36;;;;;;;19.45;3.92;;;;;;;16.85;98.72;102040.06;5041492;28;20033;-63
2022/06/13 08:00:02;;;;;;;17.20;4.00;;;;;;;16.80;98.39;102053.41;5040542;28;20447;-61
2022/06/13 08:02:31;;;;;;;15.10;4.00;;;;;;;16.76;95.17;102053.41;5043075;28;20033;-62
2022/06/13 08:04:56;;;;;;;16.48;3.80;;;;;;;16.71;97.58;102056.97;5041050;28;20021;-61
2022/06/13 08:07:23;;;;;;;20.08;4.50;;;;;;;16.78;98.71;102067.69;5040809;28;20105;-63
2022/06/13 08:09:49;;;;;;;19.02;4.20;;;;;;;16.87;95.05;102067.66;5042946;28;20032;-62
2022/06/13 08:12:17;;;;;;;19.08;4.25;;;;;;;17.01;96.09;102068.53;5040712;28;20017;-64
2022/06/13 08:14:47;;;;;;;17.00;4.13;;;;;;;17.26;94.25;102071.13;5039891;28;20502;-65
2022/06/13 08:17:19;;;;;;;17.20;3.90;;;;;;;17.61;92.05;102078.06;5048974;28;20033;-65
2022/06/13 08:19:45;;;;;;;14.63;3.87;;;;;;;17.93;84.91;102079.72;5046608;28;20606;-62
2022/06/13 08:22:10;;;;;;;14.82;3.45;;;;;;;18.24;84.55;102077.66;5046073;28;20296;-62
2022/06/13 08:24:36;;;;;;;18.42;3.90;;;;;;;18.75;80.99;102074.53;5040153;28;20078;-62
2022/06/13 08:27:03;;;;;;;18.58;3.80;;;;;;;18.56;81.56;102075.63;5042269;28;20097;-62
2022/06/13 08:29:29;;;;;;;16.95;4.00;;;;;;;18.38;84.53;102085.59;5044038;28;20029;-64
2022/06/13 08:31:54;;;;;;;14.93;3.70;;;;;;;18.20;83.39;102077.72;5046946;28;20375;-62
2022/06/13 08:34:19;;;;;;;16.42;4.22;;;;;;;17.96;84.23;102086.81;5046591;28;20392;-62
2022/06/13 08:36:45;;;;;;;15.25;3.28;;;;;;;17.71;80.86;102085.16;5041647;28;20044;-62
2022/06/13 08:39:11;;;;;;;15.15;3.50;;;;;;;17.29;84.34;102097.81;5043655;28;20045;-62
2022/06/13 08:41:45;;;;;;;14.82;3.30;;;;;;;17.22;85.73;102096.94;5044396;28;20116;-63
2022/06/13 08:44:33;;;;;;;15.60;3.53;;;;;;;17.41;85.85;102100.44;5046290;28;20035;-61
2022/06/13 08:47:15;;;;;;;16.50;3.50;;;;;;;17.75;86.66;102100.28;5042806;28;20044;-61
2022/06/13 08:49:54;;;;;;;17.52;3.92;;;;;;;17.96;84.14;102092.19;5040010;28;20049;-62
2022/06/13 08:52:28;;;;;;;15.20;3.40;;;;;;;17.84;82.71;102095.75;5039565;28;20021;-62
2022/06/13 08:55:10;;;;;;;15.52;3.80;;;;;;;17.73;81.03;102099.38;5058935;28;20021;-63
2022/06/13 08:57:39;;;;;;;15.23;3.55;;;;;;;17.80;82.66;102099.38;5044099;28;20461;-61
2022/06/13 09:00:12;;;;;;;16.92;3.80;;;;;;;17.75;84.61;102104.72;5044063;28;20018;-62
2022/06/13 09:02:40;;;;;;;14.55;3.90;;;;;;;18.11;85.37;102103.66;5044898;28;20394;-63
2022/06/13 09:05:12;;;;;;;20.33;6.18;;;;;;;18.35;79.63;102107.03;5043915;28;20033;-61
2022/06/13 09:07:48;;;;;;;19.65;5.72;;;;;;;18.64;81.62;102104.09;5045052;28;20029;-62
2022/06/13 09:10:23;;;;;;;19.70;6.38;;;;;;;18.97;81.18;102109.16;5045107;28;20026;-62
2022/06/13 09:12:48;;;;;;;22.13;7.88;;;;;;;19.14;75.40;102117.03;5043358;28;20037;-61
2022/06/13 09:15:19;;;;;;;23.40;7.53;;;;;;;18.94;75.84;102119.91;5044901;28;20044;-63
2022/06/13 09:18:01;;;;;;;23.08;9.85;;;;;;;18.54;77.12;102122.97;5040672;28;20033;-63
2022/06/13 09:20:41;;;;;;;23.85;8.80;;;;;;;18.12;76.29;102134.84;5032945;28;20057;-64
2022/06/13 09:23:29;;;;;;;20.73;6.22;;;;;;;18.18;77.73;102119.66;5043795;28;20486;-67
2022/06/13 09:26:03;;;;;;;14.65;3.88;;;;;;;18.04;79.01;102130.44;5040081;28;20090;-67
2022/06/13 09:28:34;;;;;;;17.23;4.65;;;;;;;18.36;80.73;102134.69;5072712;28;20399;-71
2022/06/13 09:31:06;;;;;;;17.05;3.40;;;;;;;18.87;76.53;102135.16;5042529;28;20399;-70
2022/06/13 09:33:34;;;;;;;13.02;2.97;;;;;;;19.26;76.08;102134.75;5042943;28;20057;-71
2022/06/13 09:36:09;;;;;;;13.23;2.88;;;;;;;19.27;76.30;102139.22;5041764;28;20035;-69
2022/06/13 09:38:41;;;;;;;14.35;3.22;;;;;;;18.91;76.64;102138.69;5038283;28;20063;-66
2022/06/13 09:41:33;;;;;;;13.80;3.13;;;;;;;18.86;77.88;102148.53;5042244;28;20379;-67
2022/06/13 09:44:31;;;;;;;15.20;3.00;;;;;;;18.42;78.35;102143.56;5039702;28;20037;-67
2022/06/13 09:47:31;;;;;;;15.80;2.90;;;;;;;18.42;77.36;102151.59;5040371;28;20413;-65
2022/06/13 09:50:27;;;;;;;14.63;2.90;;;;;;;18.74;76.66;102160.25;5040041;28;20047;-66
2022/06/13 09:53:01;;;;;;;12.38;2.80;;;;;;;19.07;74.32;102159.06;5039435;28;20380;-67
2022/06/13 09:55:58;;;;;;;16.00;2.90;;;;;;;19.54;73.63;102156.75;5037981;28;20071;-67
2022/06/13 09:58:35;;;;;;;14.23;2.80;;;;;;;19.59;69.24;102148.69;5041768;28;20029;-62
2022/06/13 10:01:21;;;;;;;16.17;2.90;;;;;;;19.90;68.89;102154.53;5043694;28;20040;-62
2022/06/13 10:04:29;;;;;;;15.73;3.72;;;;;;;20.09;64.00;102162.31;5043602;28;20486;-62
2022/06/13 10:07:07;;;;;;;19.33;6.05;;;;;;;19.41;66.13;102157.81;5027673;28;20069;-62
2022/06/13 10:09:47;;;;;;;16.67;4.70;;;;;;;19.28;68.78;102149.00;5030946;28;20528;-63
2022/06/13 10:12:34;;;;;;;14.43;3.78;;;;;;;19.61;68.13;102162.94;5028230;28;20116;-61
2022/06/13 10:15:32;;;;;;;14.43;3.15;;;;;;;20.80;64.37;102162.09;5031021;28;20041;-65
2022/06/13 10:18:35;;;;;;;15.13;3.20;;;;;;;20.40;63.71;102162.72;4945928;29;20054;-64
2022/06/13 10:21:27;;;;;;;10.85;2.50;;;;;;;21.94;58.58;102159.88;4944897;29;20475;-62
2022/06/13 10:24:30;;;;;;;19.75;6.38;;;;;;;24.06;44.12;102146.16;4943354;29;20042;-63
2022/06/13 10:27:30;;;;;;;17.02;4.13;;;;;;;23.41;42.50;102164.25;4945106;28;20036;-62
2022/06/13 10:30:07;;;;;;;17.33;5.80;;;;;;;21.55;45.02;102154.44;4943671;29;20054;-61
2022/06/13 10:33:09;;;;;;;19.25;6.20;;;;;;;21.27;48.42;102163.94;4941993;28;20024;-61
2022/06/13 10:35:49;;;;;;;19.52;6.60;;;;;;;20.84;48.31;102158.47;4942571;29;20032;-64
2022/06/13 10:38:17;;;;;;;18.17;5.50;;;;;;;20.67;49.51;102166.81;4944625;29;20561;-62
2022/06/13 10:40:43;;;;;;;15.38;4.10;;;;;;;20.80;48.28;102170.16;4943864;29;20118;-64
2022/06/13 10:43:09;;;;;;;15.45;3.70;;;;;;;22.72;46.25;102169.69;4960047;28;20585;-62
2022/06/13 10:45:38;;;;;;;12.60;2.75;;;;;;;25.00;41.25;102167.38;4983166;28;20034;-62
2022/06/13 10:48:14;;;;;;;13.30;2.78;;;;;;;25.35;39.40;102164.31;4976296;28;20035;-62
2022/06/13 10:51:01;;;;;;;15.40;2.80;;;;;;;24.32;40.74;102175.03;4977832;28;20034;-62
2022/06/13 10:53:34;;;;;;;67.18;13.40;;;;;;;23.61;41.43;102163.69;4988586;28;20058;-62
2022/06/13 10:56:03;;;;;;;9.32;2.60;;;;;;;23.27;41.23;102170.06;5044014;28;20021;-62
2022/06/13 10:58:40;;;;;;;13.20;2.80;;;;;;;24.55;39.93;102178.78;5040546;28;20033;-61
2022/06/13 11:01:15;;;;;;;14.05;2.60;;;;;;;26.62;36.18;102168.38;5035200;28;20128;-62
2022/06/13 11:04:16;;;;;;;15.40;3.35;;;;;;;26.43;35.48;102165.53;5034042;28;20029;-63
2022/06/13 11:06:47;;;;;;;13.10;3.08;;;;;;;25.79;34.40;102160.88;5033855;28;20075;-63
2022/06/13 11:09:36;;;;;;;15.70;3.10;;;;;;;24.49;37.90;102165.47;5039315;28;20029;-64
2022/06/13 11:12:05;;;;;;;12.15;2.80;;;;;;;24.52;37.47;102177.06;5040065;28;20041;-63
2022/06/13 11:23:01;;;;;;;9.85;3.03;;;;;;;25.18;33.45;102173.06;5040104;28;20100;-64
2022/06/13 11:25:30;;;;;;;10.52;2.65;;;;;;;25.48;33.53;102167.47;5040147;28;20025;-66
2022/06/13 11:28:11;;;;;;;10.27;2.55;;;;;;;24.56;34.50;102180.53;5040188;28;20029;-64
2022/06/13 11:30:38;;;;;;;11.70;2.55;;;;;;;24.76;34.39;102185.31;5041271;28;20037;-66
2022/06/13 11:33:09;;;;;;;12.65;2.70;;;;;;;25.53;34.61;102176.31;5039219;28;20076;-62
2022/06/13 11:35:50;;;;;;;12.15;2.60;;;;;;;26.21;32.97;102168.25;5041379;28;20033;-63
2022/06/13 11:38:21;;;;;;;11.68;2.80;;;;;;;24.17;34.02;102172.81;5032587;28;20600;-62
2022/06/13 11:41:16;;;;;;;12.35;2.90;;;;;;;22.69;38.45;102168.88;5041655;28;20048;-61
2022/06/13 11:43:43;;;;;;;13.43;2.75;;;;;;;21.58;40.23;102157.06;5040408;28;20081;-62
2022/06/13 11:46:30;;;;;;;12.85;2.50;;;;;;;21.24;41.82;102163.06;5038636;28;20033;-61
2022/06/13 11:49:17;;;;;;;10.13;2.60;;;;;;;24.04;37.15;102163.34;5043838;28;20083;-62
2022/06/13 11:52:01;;;;;;;14.00;2.50;;;;;;;27.40;32.42;102177.63;5045147;28;20043;-63
2022/06/13 11:54:35;;;;;;;10.20;2.60;;;;;;;26.25;30.03;102167.19;5040542;28;20049;-61
2022/06/13 11:57:18;;;;;;;14.90;2.92;;;;;;;23.79;35.17;102167.63;5043802;28;20447;-62
2022/06/13 11:59:49;;;;;;;6.80;2.40;;;;;;;22.79;35.35;102181.22;5040363;28;20472;-62
2022/06/13 12:02:20;;;;;;;12.38;2.85;;;;;;;24.74;35.13;102172.78;5044514;28;20039;-63